createdAt,value
2022-12-19T00:01:32.461Z,7.30
2022-12-19T00:04:00.459Z,7.10
2022-12-19T00:06:27.614Z,6.60
2022-12-19T00:08:54.423Z,7.10
2022-12-19T00:13:48.023Z,6.10
2022-12-19T00:16:18.837Z,6.10
2022-12-19T00:18:46.487Z,6.20
2022-12-19T00:21:14.919Z,8.10
2022-12-19T00:23:41.612Z,6.70
2022-12-19T00:28:35.637Z,5.80
2022-12-19T00:31:03.119Z,6.50
2022-12-19T00:33:30.016Z,6.50
2022-12-19T00:36:01.175Z,6.00
2022-12-19T00:38:27.874Z,7.00
2022-12-19T00:40:54.574Z,6.10
2022-12-19T00:43:21.730Z,7.20
2022-12-19T00:48:16.046Z,6.50
2022-12-19T00:50:45.964Z,6.80
2022-12-19T00:53:13.676Z,6.90
2022-12-19T00:58:06.916Z,7.20
2022-12-19T01:00:33.657Z,6.10
2022-12-19T01:05:29.317Z,4.40
2022-12-19T01:10:23.494Z,6.20
2022-12-19T01:14:45.162Z,5.80
2022-12-19T01:19:43.575Z,6.60
2022-12-19T01:22:12.397Z,5.50
2022-12-19T01:24:39.083Z,5.80
2022-12-19T01:27:05.717Z,6.30
2022-12-19T01:29:32.801Z,6.30
2022-12-19T01:32:01.319Z,6.10
2022-12-19T01:34:31.656Z,5.70
2022-12-19T01:36:58.357Z,6.50
2022-12-19T01:41:55.773Z,5.50
2022-12-19T01:44:24.130Z,6.60
2022-12-19T01:46:52.780Z,4.60
2022-12-19T01:49:30.768Z,7.30
2022-12-19T01:51:59.159Z,6.90
2022-12-19T01:54:29.612Z,5.80
2022-12-19T01:56:57.469Z,6.30
2022-12-19T01:59:27.542Z,5.60
2022-12-19T02:01:56.623Z,6.40
2022-12-19T02:04:25.290Z,5.20
2022-12-19T02:06:52.311Z,5.60
2022-12-19T02:09:19.256Z,6.50
2022-12-19T02:11:46.094Z,5.80
2022-12-19T02:16:47.585Z,6.60
2022-12-19T02:19:33.545Z,6.80
2022-12-19T02:22:16.114Z,6.80
2022-12-19T02:25:07.430Z,6.90
2022-12-19T02:27:46.049Z,5.90
2022-12-19T02:30:16.377Z,6.30
2022-12-19T02:32:48.710Z,6.20
2022-12-19T02:35:29.450Z,5.70
2022-12-19T02:38:42.016Z,5.90
2022-12-19T02:41:13.265Z,5.10
2022-12-19T02:43:41.795Z,6.80
2022-12-19T02:46:08.819Z,5.90
2022-12-19T02:48:35.559Z,5.90
2022-12-19T02:51:03.087Z,6.60
2022-12-19T02:53:31.997Z,6.20
2022-12-19T02:58:49.923Z,5.00
2022-12-19T03:01:41.667Z,6.60
2022-12-19T03:04:14.695Z,5.40
2022-12-19T03:06:49.151Z,6.00
2022-12-19T03:09:52.988Z,5.60
2022-12-19T03:12:30.777Z,6.20
2022-12-19T03:14:57.635Z,7.00
2022-12-19T03:17:25.725Z,5.90
2022-12-19T03:22:19.038Z,6.00
2022-12-19T03:24:46.095Z,5.20
2022-12-19T03:27:42.224Z,8.90
2022-12-19T03:30:11.274Z,9.50
2022-12-19T03:32:38.678Z,15.10
2022-12-19T03:35:17.245Z,17.60
2022-12-19T03:37:43.970Z,16.20
2022-12-19T03:40:16.375Z,14.20
2022-12-19T03:43:01.699Z,14.50
2022-12-19T03:45:54.674Z,11.90
2022-12-19T03:48:45.394Z,13.70
2022-12-19T03:51:18.488Z,15.50
2022-12-19T03:54:07.039Z,14.80
2022-12-19T03:57:07.694Z,12.70
2022-12-19T03:59:57.526Z,11.60
2022-12-19T04:02:24.263Z,10.50
2022-12-19T04:07:26.054Z,7.80
2022-12-19T04:09:52.706Z,9.40
2022-12-19T04:12:21.764Z,13.30
2022-12-19T04:14:48.442Z,13.60
2022-12-19T04:17:24.908Z,13.80
2022-12-19T04:19:56.437Z,11.40
2022-12-19T04:22:36.068Z,9.90
2022-12-19T04:25:03.803Z,8.80
2022-12-19T04:27:34.430Z,8.70
2022-12-19T04:30:01.153Z,7.90
2022-12-19T04:32:27.867Z,8.50
2022-12-19T04:34:54.542Z,8.30
2022-12-19T04:37:21.224Z,8.80
2022-12-19T04:39:47.890Z,9.30
2022-12-19T04:42:14.541Z,7.40
2022-12-19T04:44:41.225Z,7.60
2022-12-19T04:47:07.900Z,7.10
2022-12-19T04:49:34.636Z,7.20
2022-12-19T04:52:01.311Z,9.10
2022-12-19T04:54:28.005Z,9.40
2022-12-19T04:56:55.382Z,8.00
2022-12-19T04:59:22.012Z,9.30
2022-12-19T05:01:48.737Z,8.00
2022-12-19T05:06:42.137Z,7.30
2022-12-19T05:09:10.417Z,7.10
2022-12-19T05:11:37.232Z,6.70
2022-12-19T05:16:30.589Z,7.70
2022-12-19T05:18:57.291Z,7.50
2022-12-19T05:21:24.074Z,6.70
2022-12-19T05:26:17.980Z,7.50
2022-12-19T05:28:44.624Z,7.70
2022-12-19T05:31:15.655Z,6.90
2022-12-19T05:33:42.595Z,7.50
2022-12-19T05:36:10.067Z,8.20
2022-12-19T05:38:36.885Z,8.00
2022-12-19T05:41:11.152Z,8.80
2022-12-19T05:43:37.781Z,9.40
2022-12-19T05:46:05.193Z,8.80
2022-12-19T05:48:31.865Z,7.40
2022-12-19T05:50:58.565Z,7.10
2022-12-19T05:53:27.491Z,7.80
2022-12-19T05:56:11.900Z,8.20
2022-12-19T05:58:39.102Z,8.30
2022-12-19T06:01:11.343Z,10.00
2022-12-19T06:03:38.053Z,9.60
2022-12-19T06:06:05.662Z,10.80
2022-12-19T06:08:32.384Z,12.20
2022-12-19T06:11:03.221Z,9.70
2022-12-19T06:13:29.942Z,9.50
2022-12-19T06:16:04.151Z,9.40
2022-12-19T06:18:31.080Z,9.00
2022-12-19T06:21:02.633Z,11.00
2022-12-19T06:23:30.320Z,10.00
2022-12-19T06:25:57.791Z,9.50
2022-12-19T06:28:25.007Z,8.70
2022-12-19T06:30:51.734Z,9.80
2022-12-19T06:33:18.515Z,8.50
2022-12-19T06:38:11.838Z,8.70
2022-12-19T06:41:03.278Z,9.00
2022-12-19T06:43:30.055Z,25.00
2022-12-19T06:45:57.023Z,21.30
2022-12-19T06:48:23.846Z,14.00
2022-12-19T06:53:17.045Z,11.00
2022-12-19T06:55:48.642Z,10.70
2022-12-19T06:58:17.339Z,10.90
2022-12-19T07:00:46.926Z,10.20
2022-12-19T07:03:14.161Z,8.90
2022-12-19T07:05:40.863Z,11.40
2022-12-19T07:08:10.839Z,10.90
2022-12-19T07:10:37.628Z,10.50
2022-12-19T07:15:31.980Z,10.10
2022-12-19T07:17:59.597Z,11.30
2022-12-19T07:20:26.272Z,10.90
2022-12-19T07:22:53.827Z,11.30
2022-12-19T07:25:20.535Z,10.50
2022-12-19T07:27:47.481Z,11.80
2022-12-19T07:30:14.200Z,11.60
2022-12-19T07:32:40.917Z,12.10
2022-12-19T07:35:08.096Z,13.40
2022-12-19T07:37:34.865Z,12.20
2022-12-19T07:40:01.590Z,14.10
2022-12-19T07:42:32.464Z,12.50
2022-12-19T07:45:01.435Z,11.50
2022-12-19T07:47:28.203Z,13.30
2022-12-19T07:49:54.843Z,11.70
2022-12-19T07:52:21.612Z,10.80
2022-12-19T07:54:48.307Z,9.50
2022-12-19T07:57:14.940Z,11.00
2022-12-19T07:59:41.603Z,9.40
2022-12-19T08:02:08.435Z,8.80
2022-12-19T08:07:02.437Z,10.10
2022-12-19T08:09:29.227Z,10.80
2022-12-19T08:14:22.527Z,9.70
2022-12-19T08:17:19.296Z,11.10
2022-12-19T08:19:35.964Z,10.40
2022-12-19T08:22:02.649Z,10.20
2022-12-19T08:24:30.882Z,11.20
2022-12-19T08:26:57.661Z,14.20
2022-12-19T08:31:51.028Z,14.50
2022-12-19T08:36:44.355Z,10.00
2022-12-19T08:39:11.269Z,11.70
2022-12-19T08:41:38.074Z,12.20
2022-12-19T08:44:04.799Z,12.00
2022-12-19T08:48:58.449Z,11.90
2022-12-19T08:51:27.120Z,11.80
2022-12-19T08:53:53.860Z,10.70
2022-12-19T08:56:21.717Z,11.00
2022-12-19T08:58:48.605Z,11.80
2022-12-19T09:04:11.484Z,10.70
2022-12-19T09:06:29.800Z,10.70
2022-12-19T09:11:27.330Z,10.00
2022-12-19T09:13:55.553Z,10.10
2022-12-19T09:16:22.795Z,10.10
2022-12-19T09:18:51.048Z,9.70
2022-12-19T09:21:18.957Z,10.20
2022-12-19T09:23:53.530Z,10.20
2022-12-19T09:26:21.237Z,9.20
2022-12-19T09:28:49.829Z,9.40
2022-12-19T09:31:18.544Z,10.00
2022-12-19T09:33:45.302Z,9.90
2022-12-19T09:36:16.214Z,10.00
2022-12-19T09:38:43.131Z,11.90
2022-12-19T09:41:24.458Z,11.60
2022-12-19T09:44:11.975Z,12.00
2022-12-19T09:46:57.649Z,12.00
2022-12-19T09:49:43.319Z,12.30
2022-12-19T09:52:33.400Z,11.90
2022-12-19T09:55:04.944Z,12.70
2022-12-19T09:57:41.002Z,13.50
2022-12-19T10:00:13.908Z,14.20
2022-12-19T10:03:00.658Z,13.90
2022-12-19T10:06:47.837Z,13.00
2022-12-19T10:10:36.276Z,11.10
2022-12-19T10:12:39.410Z,9.30
2022-12-19T10:14:36.708Z,11.80
2022-12-19T10:17:24.582Z,11.80
2022-12-19T10:20:16.671Z,12.90
2022-12-19T10:23:08.585Z,10.90
2022-12-19T10:25:37.445Z,10.90
2022-12-19T10:28:24.417Z,11.10
2022-12-19T10:31:09.054Z,9.50
2022-12-19T10:33:47.557Z,10.20
2022-12-19T10:36:15.559Z,11.80
2022-12-19T10:38:58.318Z,12.10
2022-12-19T10:41:27.972Z,11.80
2022-12-19T10:44:05.791Z,11.00
2022-12-19T10:46:49.208Z,11.20
2022-12-19T10:49:17.750Z,9.90
2022-12-19T10:52:05.311Z,10.00
2022-12-19T10:54:38.422Z,10.10
2022-12-19T10:57:24.575Z,9.80
2022-12-19T11:00:15.279Z,9.60
2022-12-19T11:02:45.541Z,9.50
2022-12-19T11:05:27.198Z,9.60
2022-12-19T11:08:06.192Z,8.50
2022-12-19T11:12:19.498Z,9.50
2022-12-19T11:19:25.179Z,9.50
2022-12-19T11:21:46.317Z,10.10
2022-12-19T11:29:39.119Z,10.60
2022-12-19T11:29:46.487Z,11.90
2022-12-19T11:30:08.857Z,12.10
2022-12-19T11:30:35.460Z,9.40
2022-12-19T17:48:54.619Z,56.30
2022-12-19T17:51:21.966Z,52.10
2022-12-19T17:53:49.855Z,46.40
2022-12-19T17:56:17.634Z,45.40
2022-12-19T17:58:44.321Z,46.30
2022-12-19T18:01:21.337Z,44.30
2022-12-19T18:03:48.816Z,42.80
2022-12-19T18:06:15.706Z,42.50
2022-12-19T18:11:20.918Z,42.60
2022-12-19T18:13:47.754Z,44.20
2022-12-19T18:18:41.763Z,39.10
2022-12-19T18:21:17.753Z,53.00
2022-12-19T18:23:44.502Z,40.80
2022-12-19T18:28:39.123Z,37.90
2022-12-19T18:31:25.615Z,47.70
2022-12-19T18:33:52.902Z,48.30
2022-12-19T18:36:24.326Z,50.50
2022-12-19T18:38:51.305Z,46.40
2022-12-19T18:41:18.307Z,44.50
2022-12-19T18:43:45.113Z,41.00
2022-12-19T18:48:39.295Z,41.10
2022-12-19T18:51:06.068Z,38.10
2022-12-19T18:53:35.503Z,43.30
2022-12-19T18:56:03.154Z,40.60
2022-12-19T18:58:29.856Z,38.10
2022-12-19T19:00:59.386Z,35.10
2022-12-19T19:03:29.163Z,37.80
2022-12-19T19:05:56.025Z,36.00
2022-12-19T19:10:59.946Z,31.10
2022-12-19T19:13:26.906Z,29.80
2022-12-19T19:15:56.475Z,30.30
2022-12-19T19:18:29.892Z,36.60
2022-12-19T19:21:01.068Z,38.30
2022-12-19T19:23:30.231Z,44.50
2022-12-19T19:25:57.058Z,50.00
2022-12-19T19:30:50.797Z,43.10
2022-12-19T19:35:46.741Z,32.80
2022-12-19T19:38:13.501Z,32.80
2022-12-19T19:43:07.157Z,29.30
2022-12-19T19:45:38.149Z,28.30
2022-12-19T19:48:10.305Z,28.40
2022-12-19T19:50:37.140Z,30.20
2022-12-19T19:55:31.528Z,22.40
2022-12-19T19:57:58.405Z,25.00
2022-12-19T20:02:52.859Z,26.10
2022-12-19T20:05:23.022Z,31.10
2022-12-19T20:07:49.881Z,33.50
2022-12-19T20:30:09.088Z,62.10
2022-12-19T20:32:36.032Z,47.70
2022-12-19T20:37:29.671Z,35.10
2022-12-19T20:39:56.494Z,33.30
2022-12-19T20:44:49.893Z,32.90
2022-12-19T20:47:16.573Z,29.70
2022-12-19T20:49:44.520Z,26.70
2022-12-19T20:52:11.683Z,24.20
2022-12-19T20:54:38.520Z,20.80
2022-12-19T20:59:32.013Z,22.40
2022-12-19T21:02:00.659Z,21.40
2022-12-19T21:04:27.514Z,22.80
2022-12-19T21:06:54.577Z,23.40
2022-12-19T21:11:47.922Z,21.60
2022-12-19T21:14:14.576Z,21.60
2022-12-19T21:16:41.356Z,20.00
2022-12-19T21:19:08.732Z,20.40
2022-12-19T21:21:35.454Z,21.90
2022-12-19T21:24:02.337Z,19.10
2022-12-19T21:28:58.020Z,17.60
2022-12-19T21:31:26.347Z,20.10
2022-12-19T21:34:00.206Z,21.80
2022-12-19T21:36:27.747Z,23.80
2022-12-19T21:38:56.588Z,24.00
2022-12-19T21:41:23.567Z,23.00
2022-12-19T21:43:53.554Z,21.50
2022-12-19T21:46:25.352Z,18.10
2022-12-19T21:48:53.609Z,22.00
2022-12-19T21:51:21.537Z,20.90
2022-12-19T21:53:48.534Z,20.90
2022-12-19T21:56:20.238Z,18.60
2022-12-19T21:58:47.039Z,15.60
2022-12-19T22:03:40.803Z,14.50
2022-12-19T22:06:08.866Z,14.60
2022-12-19T22:08:36.449Z,14.00
2022-12-19T22:11:03.201Z,23.20
2022-12-19T22:16:01.487Z,14.90
2022-12-19T22:18:28.214Z,13.40
2022-12-19T22:20:57.319Z,12.60
2022-12-19T22:23:24.001Z,12.90
2022-12-19T22:25:53.069Z,12.50
2022-12-19T22:28:19.706Z,11.20
2022-12-19T22:30:46.999Z,12.40
2022-12-19T22:33:13.691Z,13.80
2022-12-19T22:35:40.443Z,12.90
2022-12-19T22:38:07.104Z,12.80
2022-12-19T22:40:34.417Z,14.00
2022-12-19T22:43:01.120Z,13.90
2022-12-19T22:45:30.502Z,14.00
2022-12-19T22:47:57.208Z,15.00
2022-12-19T22:50:23.910Z,11.80
2022-12-19T22:52:50.558Z,13.70
2022-12-19T22:55:17.448Z,12.30
2022-12-19T23:00:13.554Z,11.70
2022-12-19T23:02:43.972Z,13.00
2022-12-19T23:05:10.896Z,11.10
2022-12-19T23:07:37.566Z,11.70
2022-12-19T23:10:04.628Z,10.30
2022-12-19T23:12:31.320Z,10.70
2022-12-19T23:14:58.150Z,11.90
2022-12-19T23:19:51.423Z,10.00
2022-12-19T23:22:18.229Z,9.90
2022-12-19T23:27:11.540Z,29.20
2022-12-19T23:29:38.213Z,25.90
2022-12-19T23:32:05.247Z,16.70
2022-12-19T23:34:31.975Z,14.70
2022-12-19T23:37:10.837Z,12.40
2022-12-19T23:39:38.183Z,10.60
2022-12-19T23:42:04.924Z,12.00
2022-12-19T23:44:31.786Z,13.00
2022-12-19T23:47:02.935Z,12.30
2022-12-19T23:49:30.531Z,11.90
2022-12-19T23:54:23.964Z,11.20
2022-12-19T23:59:18.289Z,9.60
